createdAt,value
2023-12-04T00:01:23.828Z,75.99
2023-12-04T00:06:26.646Z,74.68
2023-12-04T00:11:29.759Z,75.68
2023-12-04T00:16:38.901Z,74.83
2023-12-04T00:21:40.798Z,75.11
2023-12-04T00:26:42.582Z,75.43
2023-12-04T00:31:44.564Z,75.89
2023-12-04T00:36:46.583Z,75.87
2023-12-04T00:41:48.336Z,75.39
2023-12-04T00:46:50.297Z,75.37
2023-12-04T00:51:52.088Z,75.09
2023-12-04T00:56:53.814Z,73.67
2023-12-04T01:01:55.625Z,73.53
2023-12-04T01:06:57.392Z,73.95
2023-12-04T01:11:59.237Z,73.64
2023-12-04T01:17:01.746Z,73.81
2023-12-04T01:22:03.832Z,74.08
2023-12-04T01:27:05.604Z,74.26
2023-12-04T01:32:07.543Z,74.35
2023-12-04T01:37:10.362Z,74.48
2023-12-04T01:42:12.846Z,73.70
2023-12-04T01:47:14.702Z,74.09
2023-12-04T01:52:17.626Z,74.16
2023-12-04T01:57:20.350Z,73.39
2023-12-04T02:02:22.253Z,73.00
2023-12-04T02:07:24.496Z,72.81
2023-12-04T02:12:26.744Z,72.75
2023-12-04T02:17:29.896Z,72.94
2023-12-04T02:22:32.132Z,72.26
2023-12-04T02:27:38.500Z,72.76
2023-12-04T02:32:46.696Z,73.01
2023-12-04T02:37:49.767Z,72.70
2023-12-04T02:42:51.979Z,72.16
2023-12-04T02:47:53.979Z,72.32
2023-12-04T02:52:57.134Z,72.36
2023-12-04T02:57:58.833Z,72.52
2023-12-04T03:03:01.337Z,71.86
2023-12-04T03:08:03.345Z,71.97
2023-12-04T03:13:05.119Z,72.27
2023-12-04T03:18:12.781Z,71.84
2023-12-04T03:23:14.929Z,71.84
2023-12-04T03:28:16.999Z,71.81
2023-12-04T03:33:18.833Z,71.86
2023-12-04T03:38:20.627Z,72.16
2023-12-04T03:43:22.824Z,72.01
2023-12-04T03:48:25.073Z,71.60
2023-12-04T03:53:30.067Z,71.93
2023-12-04T03:58:33.137Z,71.90
2023-12-04T04:03:35.113Z,71.75
2023-12-04T04:08:37.117Z,72.24
2023-12-04T04:13:39.488Z,71.41
2023-12-04T04:18:41.300Z,71.57
2023-12-04T04:23:43.082Z,71.49
2023-12-04T04:28:45.028Z,71.10
2023-12-04T04:33:46.929Z,71.43
2023-12-04T04:38:48.727Z,70.79
2023-12-04T04:43:50.462Z,71.64
2023-12-04T04:48:52.474Z,71.88
2023-12-04T04:53:54.293Z,71.93
2023-12-04T04:58:57.339Z,70.90
2023-12-04T05:03:59.175Z,71.11
2023-12-04T05:09:00.943Z,71.22
2023-12-04T05:14:02.826Z,71.45
2023-12-04T05:19:04.585Z,71.81
2023-12-04T05:24:06.807Z,71.35
2023-12-04T05:29:08.858Z,71.69
2023-12-04T05:34:10.864Z,71.87
2023-12-04T05:39:13.676Z,72.04
2023-12-04T05:44:15.405Z,72.39
2023-12-04T05:49:17.521Z,70.80
2023-12-04T05:54:19.469Z,71.35
2023-12-04T05:59:21.579Z,71.13
2023-12-04T06:04:23.419Z,71.08
2023-12-04T06:09:25.305Z,71.66
2023-12-04T06:14:27.762Z,71.08
2023-12-04T06:19:30.325Z,71.25
2023-12-04T06:24:32.468Z,72.07
2023-12-04T06:29:34.637Z,72.80
2023-12-04T06:34:37.050Z,74.38
2023-12-04T06:39:40.117Z,75.41
2023-12-04T06:44:42.611Z,74.30
2023-12-04T06:49:45.047Z,73.87
2023-12-04T06:54:47.074Z,73.79
2023-12-04T06:59:49.048Z,73.74
2023-12-04T07:04:50.951Z,73.18
2023-12-04T07:09:55.754Z,73.06
2023-12-04T07:14:57.652Z,75.76
2023-12-04T07:19:59.413Z,76.19
2023-12-04T07:25:01.462Z,76.17
2023-12-04T07:30:04.416Z,75.12
2023-12-04T07:35:07.384Z,73.57
2023-12-04T07:40:10.825Z,71.75
2023-12-04T07:45:12.641Z,70.70
2023-12-04T07:50:14.695Z,71.19
2023-12-04T07:55:16.428Z,71.82
2023-12-04T08:00:23.752Z,72.37
2023-12-04T08:05:25.499Z,72.49
2023-12-04T08:10:28.015Z,72.83
2023-12-04T08:15:29.833Z,72.29
2023-12-04T08:20:36.944Z,72.50
2023-12-04T08:25:43.283Z,73.20
2023-12-04T08:30:45.094Z,73.00
2023-12-04T08:35:47.217Z,73.33
2023-12-04T08:40:49.028Z,73.05
2023-12-04T08:45:50.941Z,72.94
2023-12-04T08:50:52.738Z,73.33
2023-12-04T08:55:54.495Z,73.50
2023-12-04T09:00:56.266Z,73.96
2023-12-04T09:05:58.934Z,74.28
2023-12-04T09:11:11.090Z,74.43
2023-12-04T09:16:22.566Z,74.86
2023-12-04T09:21:24.300Z,74.97
2023-12-04T09:26:26.241Z,75.30
2023-12-04T09:31:28.116Z,75.19
2023-12-04T09:36:30.651Z,74.82
2023-12-04T09:41:34.049Z,75.36
2023-12-04T09:46:36.534Z,75.61
2023-12-04T09:51:39.175Z,75.04
2023-12-04T09:56:41.808Z,75.06
2023-12-04T10:01:44.308Z,75.27
2023-12-04T10:06:46.941Z,75.95
2023-12-04T10:11:51.700Z,75.66
2023-12-04T10:16:56.676Z,75.06
2023-12-04T10:22:00.814Z,75.71
2023-12-04T10:27:10.152Z,75.38
2023-12-04T10:32:12.964Z,75.64
2023-12-04T10:37:15.839Z,75.31
2023-12-04T10:42:28.535Z,76.29
2023-12-04T10:47:34.661Z,76.32
2023-12-04T10:52:41.634Z,75.95
2023-12-04T10:57:44.629Z,76.10
2023-12-04T11:02:49.578Z,76.39
2023-12-04T11:08:14.338Z,76.84
2023-12-04T11:13:24.065Z,76.33
2023-12-04T11:18:29.564Z,76.16
2023-12-04T11:23:33.331Z,76.35
2023-12-04T11:28:37.525Z,76.26
2023-12-04T11:33:39.725Z,76.03
2023-12-04T11:38:49.677Z,76.58
2023-12-04T11:43:52.755Z,76.30
2023-12-04T11:48:56.936Z,76.22
2023-12-04T11:53:59.206Z,76.55
2023-12-04T11:59:08.357Z,76.61
2023-12-04T12:04:11.505Z,76.13
2023-12-04T12:09:13.847Z,76.67
2023-12-04T12:14:16.134Z,77.37
2023-12-04T12:19:20.602Z,76.82
2023-12-04T12:24:24.763Z,77.10
2023-12-04T12:29:28.401Z,77.86
2023-12-04T12:34:30.427Z,76.95
2023-12-04T12:39:34.103Z,76.69
2023-12-04T12:44:41.561Z,76.36
2023-12-04T12:49:44.601Z,77.09
2023-12-04T12:54:46.635Z,76.34
2023-12-04T12:59:48.832Z,76.26
2023-12-04T13:04:51.919Z,76.01
2023-12-04T13:09:54.417Z,76.52
2023-12-04T13:14:56.529Z,76.58
2023-12-04T13:19:58.396Z,77.78
2023-12-04T13:25:00.627Z,77.11
2023-12-04T13:30:02.834Z,76.41
2023-12-04T13:35:06.382Z,75.95
2023-12-04T13:40:09.532Z,75.87
2023-12-04T13:45:11.375Z,75.69
2023-12-04T13:50:13.575Z,75.81
2023-12-04T13:55:20.869Z,76.33
2023-12-04T14:00:22.665Z,75.93
2023-12-04T14:05:24.787Z,76.12
2023-12-04T14:10:28.033Z,76.08
2023-12-04T14:15:31.074Z,76.41
2023-12-04T14:20:32.982Z,76.29
2023-12-04T14:25:35.114Z,76.34
2023-12-04T14:30:40.463Z,75.78
2023-12-04T14:35:44.754Z,76.74
2023-12-04T14:40:46.646Z,76.62
2023-12-04T14:45:48.988Z,76.32
2023-12-04T14:50:51.959Z,76.34
2023-12-04T14:56:12.787Z,76.53
2023-12-04T15:01:41.290Z,76.68
2023-12-04T15:07:01.991Z,76.79
2023-12-04T15:12:22.110Z,77.25
2023-12-04T15:17:34.000Z,77.02
2023-12-04T15:22:36.656Z,77.44
2023-12-04T15:27:39.213Z,77.03
2023-12-04T15:32:41.372Z,76.78
2023-12-04T15:37:43.133Z,77.26
2023-12-04T15:42:46.452Z,77.16
2023-12-04T15:47:48.537Z,76.71
2023-12-04T15:52:50.511Z,77.59
2023-12-04T15:57:56.054Z,77.50
2023-12-04T16:02:59.096Z,78.07
2023-12-04T16:08:01.812Z,77.46
2023-12-04T16:13:03.573Z,78.03
2023-12-04T16:18:07.619Z,77.99
2023-12-04T16:23:09.561Z,78.56
2023-12-04T16:28:12.065Z,78.79
2023-12-04T16:33:14.447Z,78.63
2023-12-04T16:38:16.300Z,77.93
2023-12-04T16:43:18.635Z,77.94
2023-12-04T16:48:21.008Z,78.60
2023-12-04T16:53:23.719Z,78.04
2023-12-04T16:58:25.650Z,78.12
2023-12-04T17:03:27.987Z,78.19
2023-12-04T17:08:30.333Z,78.42
2023-12-04T17:13:32.473Z,78.42
2023-12-04T17:18:34.336Z,79.13
2023-12-04T17:23:37.570Z,78.46
2023-12-04T17:28:39.615Z,78.12
2023-12-04T17:33:43.026Z,78.28
2023-12-04T17:38:45.492Z,78.21
2023-12-04T17:43:47.247Z,78.56
2023-12-04T17:48:49.238Z,78.07
2023-12-04T17:53:51.265Z,78.41
2023-12-04T17:58:53.005Z,78.15
2023-12-04T18:03:55.154Z,78.36
2023-12-04T18:08:56.942Z,78.71
2023-12-04T18:13:58.856Z,78.47
2023-12-04T18:19:00.929Z,78.92
2023-12-04T18:24:02.812Z,78.42
2023-12-04T18:29:04.851Z,79.21
2023-12-04T18:34:06.867Z,78.92
2023-12-04T18:39:10.536Z,78.91
2023-12-04T18:44:12.937Z,78.79
2023-12-04T18:49:15.711Z,78.93
2023-12-04T18:54:17.599Z,78.60
2023-12-04T18:59:19.429Z,78.93
2023-12-04T19:04:21.360Z,78.79
2023-12-04T19:09:23.194Z,78.78
2023-12-04T19:14:25.005Z,79.04
2023-12-04T19:19:26.977Z,78.88
2023-12-04T19:24:28.938Z,78.51
2023-12-04T19:29:31.758Z,78.32
2023-12-04T19:34:33.742Z,78.77
2023-12-04T19:39:40.758Z,79.00
2023-12-04T19:44:45.959Z,78.91
2023-12-04T19:49:47.970Z,78.81
2023-12-04T19:54:50.324Z,78.55
2023-12-04T19:59:52.330Z,78.67
2023-12-04T20:04:54.371Z,78.92
2023-12-04T20:09:56.279Z,78.67
2023-12-04T20:14:58.156Z,78.79
2023-12-04T20:20:00.909Z,78.87
2023-12-04T20:25:03.426Z,79.46
2023-12-04T20:30:05.916Z,79.02
2023-12-04T20:35:08.741Z,78.69
2023-12-04T20:40:11.866Z,78.99
2023-12-04T20:45:15.821Z,79.09
2023-12-04T20:50:18.145Z,79.46
2023-12-04T20:55:20.460Z,79.22
2023-12-04T21:00:22.530Z,79.75
2023-12-04T21:05:26.398Z,79.19
2023-12-04T21:10:28.305Z,79.36
2023-12-04T21:15:30.924Z,79.33
2023-12-04T21:20:32.721Z,79.74
2023-12-04T21:25:34.991Z,79.80
2023-12-04T21:30:36.962Z,79.91
2023-12-04T21:35:39.979Z,79.82
2023-12-04T21:40:42.678Z,80.21
2023-12-04T21:45:45.069Z,80.36
2023-12-04T21:50:46.805Z,80.43
2023-12-04T21:55:48.646Z,80.47
2023-12-04T22:00:50.710Z,80.98
2023-12-04T22:05:53.336Z,81.32
2023-12-04T22:10:55.041Z,81.25
2023-12-04T22:15:59.571Z,80.79
2023-12-04T22:21:01.657Z,80.88
2023-12-04T22:26:03.965Z,80.84
2023-12-04T22:31:06.382Z,80.63
2023-12-04T22:36:08.924Z,81.21
2023-12-04T22:41:10.952Z,81.29
2023-12-04T22:46:12.730Z,80.53
2023-12-04T22:51:14.529Z,81.79
2023-12-04T22:56:17.623Z,82.25
2023-12-04T23:01:19.468Z,81.90
2023-12-04T23:06:21.404Z,82.59
2023-12-04T23:11:23.270Z,82.32
2023-12-04T23:16:25.044Z,82.26
2023-12-04T23:21:26.765Z,82.72
2023-12-04T23:26:28.568Z,82.88
2023-12-04T23:31:30.271Z,82.59
2023-12-04T23:36:32.146Z,82.48
2023-12-04T23:41:34.856Z,82.56
2023-12-04T23:46:36.811Z,82.47
2023-12-04T23:51:38.849Z,82.74
2023-12-04T23:56:40.935Z,83.02
